Jones, Georgia
Current Conditions -  °F | °C
As of 2:58 PM on Sunday 23 Nov 2014 (Local Time) from KLHW Reporting Station
Overcast Overcast  
Wind Chill: 72°   Ceiling: 600
Heat Index: 72°   Visibility: 10mi
Dew Point: 69°   Wind: 8mph
Humidity: 93%   Direction: 110°ESE
Pressure: 29.83"   Gusts: NA
Location:  31.7217°N, 81.4475°W
Report Text: KLHW 231958Z AUTO 11007KT 10SM OVC006 22/21 A2983 RMK AO2 SLP104 T02200208
Loading
Personal Weather Stations






























Interactive Weather Map New forecast layout! Learn more

10-Day Weather Forecast

Advertisements
Track Severe Weather on mobile